sensor_id;sensor_type;location;lat;lon;timestamp;pressure;altitude;pressure_sealevel;temperature;humidity
72061;BME280;59925;52.136;5.420;2023-02-23T00:01:36;101504.47;;;7.45;94.19
72061;BME280;59925;52.136;5.420;2023-02-23T00:04:03;101508.19;;;7.44;94.45
72061;BME280;59925;52.136;5.420;2023-02-23T00:06:30;101511.06;;;7.42;94.37
72061;BME280;59925;52.136;5.420;2023-02-23T00:08:58;101513.16;;;7.40;94.49
72061;BME280;59925;52.136;5.420;2023-02-23T00:11:27;101515.84;;;7.40;94.71
72061;BME280;59925;52.136;5.420;2023-02-23T00:13:54;101510.97;;;7.37;94.67
72061;BME280;59925;52.136;5.420;2023-02-23T00:16:23;101504.00;;;7.36;94.96
72061;BME280;59925;52.136;5.420;2023-02-23T00:18:55;101503.16;;;7.35;94.96
72061;BME280;59925;52.136;5.420;2023-02-23T00:21:24;101510.13;;;7.36;95.07
72061;BME280;59925;52.136;5.420;2023-02-23T00:23:54;101502.97;;;7.37;94.82
72061;BME280;59925;52.136;5.420;2023-02-23T00:26:22;101503.16;;;7.35;94.95
72061;BME280;59925;52.136;5.420;2023-02-23T00:28:51;101495.41;;;7.34;95.12
72061;BME280;59925;52.136;5.420;2023-02-23T00:31:19;101494.81;;;7.32;94.97
72061;BME280;59925;52.136;5.420;2023-02-23T00:33:55;101497.16;;;7.28;95.20
72061;BME280;59925;52.136;5.420;2023-02-23T00:36:25;101492.25;;;7.25;95.04
72061;BME280;59925;52.136;5.420;2023-02-23T00:38:53;101493.09;;;7.26;95.31
72061;BME280;59925;52.136;5.420;2023-02-23T00:41:20;101487.97;;;7.24;95.29
72061;BME280;59925;52.136;5.420;2023-02-23T00:43:58;101491.91;;;7.21;95.36
72061;BME280;59925;52.136;5.420;2023-02-23T00:46:27;101491.34;;;7.19;95.63
72061;BME280;59925;52.136;5.420;2023-02-23T00:48:55;101493.22;;;7.19;95.58
72061;BME280;59925;52.136;5.420;2023-02-23T00:51:24;101493.22;;;7.19;95.52
72061;BME280;59925;52.136;5.420;2023-02-23T00:53:58;101497.94;;;7.17;95.54
72061;BME280;59925;52.136;5.420;2023-02-23T00:56:25;101494.25;;;7.18;95.58
72061;BME280;59925;52.136;5.420;2023-02-23T00:58:52;101491.78;;;7.16;95.92
72061;BME280;59925;52.136;5.420;2023-02-23T01:01:20;101494.69;;;7.15;96.02
72061;BME280;59925;52.136;5.420;2023-02-23T01:03:47;101492.03;;;7.15;95.97
72061;BME280;59925;52.136;5.420;2023-02-23T01:06:16;101489.59;;;7.13;96.15
72061;BME280;59925;52.136;5.420;2023-02-23T01:08:44;101493.31;;;7.12;95.99
72061;BME280;59925;52.136;5.420;2023-02-23T01:11:13;101490.66;;;7.12;96.03
72061;BME280;59925;52.136;5.420;2023-02-23T01:13:42;101497.03;;;7.11;96.09
72061;BME280;59925;52.136;5.420;2023-02-23T01:16:12;101495.38;;;7.10;96.34
72061;BME280;59925;52.136;5.420;2023-02-23T01:18:40;101498.28;;;7.09;96.24
72061;BME280;59925;52.136;5.420;2023-02-23T01:21:20;101493.19;;;7.07;96.34
72061;BME280;59925;52.136;5.420;2023-02-23T01:23:46;101502.22;;;7.06;96.22
72061;BME280;59925;52.136;5.420;2023-02-23T01:26:31;101500.00;;;7.03;96.29
72061;BME280;59925;52.136;5.420;2023-02-23T01:29:14;101494.66;;;7.03;96.21
72061;BME280;59925;52.136;5.420;2023-02-23T01:31:43;101494.91;;;7.01;96.46
72061;BME280;59925;52.136;5.420;2023-02-23T01:34:12;101501.03;;;7.02;96.72
72061;BME280;59925;52.136;5.420;2023-02-23T01:36:41;101507.19;;;7.02;96.43
72061;BME280;59925;52.136;5.420;2023-02-23T01:39:13;101503.69;;;7.02;96.39
72061;BME280;59925;52.136;5.420;2023-02-23T01:41:40;101504.53;;;7.02;96.52
72061;BME280;59925;52.136;5.420;2023-02-23T01:46:56;101497.34;;;7.03;96.44
72061;BME280;59925;52.136;5.420;2023-02-23T01:49:26;101509.88;;;7.02;96.81
72061;BME280;59925;52.136;5.420;2023-02-23T01:52:09;101508.00;;;7.03;96.46
72061;BME280;59925;52.136;5.420;2023-02-23T01:54:38;101499.19;;;7.02;96.75
72061;BME280;59925;52.136;5.420;2023-02-23T01:57:11;101500.59;;;7.05;96.59
72061;BME280;59925;52.136;5.420;2023-02-23T01:59:42;101499.53;;;7.06;96.58
72061;BME280;59925;52.136;5.420;2023-02-23T02:02:10;101499.34;;;7.08;96.44
72061;BME280;59925;52.136;5.420;2023-02-23T02:04:39;101505.22;;;7.10;96.63
72061;BME280;59925;52.136;5.420;2023-02-23T02:07:25;101499.09;;;7.09;96.53
72061;BME280;59925;52.136;5.420;2023-02-23T02:09:53;101501.53;;;7.11;96.24
72061;BME280;59925;52.136;5.420;2023-02-23T02:12:44;101506.06;;;7.10;96.18
72061;BME280;59925;52.136;5.420;2023-02-23T02:15:12;101501.31;;;7.12;96.11
72061;BME280;59925;52.136;5.420;2023-02-23T02:24:02;101507.09;;;7.09;96.12
72061;BME280;59925;52.136;5.420;2023-02-23T02:42:28;101506.25;;;7.09;96.14
72061;BME280;59925;52.136;5.420;2023-02-23T02:45:13;101505.47;;;7.08;96.13
72061;BME280;59925;52.136;5.420;2023-02-23T02:48:05;101506.50;;;7.07;96.38
72061;BME280;59925;52.136;5.420;2023-02-23T02:50:55;101508.13;;;7.08;96.18
72061;BME280;59925;52.136;5.420;2023-02-23T02:53:41;101509.41;;;7.05;96.20
72061;BME280;59925;52.136;5.420;2023-02-23T02:56:13;101498.75;;;7.05;96.31
72061;BME280;59925;52.136;5.420;2023-02-23T02:58:41;101502.66;;;7.03;96.32
72061;BME280;59925;52.136;5.420;2023-02-23T03:01:12;101498.84;;;6.99;96.46
72061;BME280;59925;52.136;5.420;2023-02-23T03:04:03;101496.97;;;6.99;96.76
72061;BME280;59925;52.136;5.420;2023-02-23T03:06:58;101501.53;;;6.99;96.83
72061;BME280;59925;52.136;5.420;2023-02-23T03:10:02;101493.53;;;6.99;96.79
72061;BME280;59925;52.136;5.420;2023-02-23T03:16:19;101499.31;;;6.96;97.00
72061;BME280;59925;52.136;5.420;2023-02-23T03:19:26;101508.34;;;6.95;97.16
72061;BME280;59925;52.136;5.420;2023-02-23T03:22:36;101505.66;;;6.95;97.44
72061;BME280;59925;52.136;5.420;2023-02-23T03:26:01;101495.00;;;6.95;97.36
72061;BME280;59925;52.136;5.420;2023-02-23T03:29:09;101511.81;;;6.95;97.59
72061;BME280;59925;52.136;5.420;2023-02-23T03:32:06;101511.00;;;6.95;97.39
72061;BME280;59925;52.136;5.420;2023-02-23T03:35:00;101500.56;;;6.93;97.60
72061;BME280;59925;52.136;5.420;2023-02-23T03:37:55;101510.41;;;6.93;97.64
72061;BME280;59925;52.136;5.420;2023-02-23T03:40:45;101508.34;;;6.95;97.99
72061;BME280;59925;52.136;5.420;2023-02-23T03:43:40;101508.78;;;6.92;97.82
72061;BME280;59925;52.136;5.420;2023-02-23T03:46:28;101516.78;;;6.92;97.93
72061;BME280;59925;52.136;5.420;2023-02-23T03:49:14;101524.56;;;6.93;98.09
72061;BME280;59925;52.136;5.420;2023-02-23T03:52:08;101522.34;;;6.90;97.92
72061;BME280;59925;52.136;5.420;2023-02-23T03:55:00;101525.22;;;6.88;98.07
72061;BME280;59925;52.136;5.420;2023-02-23T03:57:50;101530.56;;;6.88;98.13
72061;BME280;59925;52.136;5.420;2023-02-23T04:00:43;101526.66;;;6.91;98.08
72061;BME280;59925;52.136;5.420;2023-02-23T04:03:31;101535.69;;;6.90;98.03
72061;BME280;59925;52.136;5.420;2023-02-23T04:06:22;101534.06;;;6.89;97.99
72061;BME280;59925;52.136;5.420;2023-02-23T04:09:07;101531.63;;;6.87;98.01
72061;BME280;59925;52.136;5.420;2023-02-23T04:11:59;101534.28;;;6.87;97.83
72061;BME280;59925;52.136;5.420;2023-02-23T04:15:06;101529.75;;;6.88;97.90
72061;BME280;59925;52.136;5.420;2023-02-23T04:17:33;101536.13;;;6.87;97.91
72061;BME280;59925;52.136;5.420;2023-02-23T04:20:00;101532.88;;;6.85;97.56
72061;BME280;59925;52.136;5.420;2023-02-23T04:22:27;101536.38;;;6.85;98.01
72061;BME280;59925;52.136;5.420;2023-02-23T04:24:53;101537.16;;;6.86;97.89
72061;BME280;59925;52.136;5.420;2023-02-23T04:27:20;101538.19;;;6.85;97.94
72061;BME280;59925;52.136;5.420;2023-02-23T04:29:46;101539.03;;;6.85;98.03
72061;BME280;59925;52.136;5.420;2023-02-23T04:32:16;101539.25;;;6.84;97.99
72061;BME280;59925;52.136;5.420;2023-02-23T04:34:43;101540.06;;;6.84;97.93
72061;BME280;59925;52.136;5.420;2023-02-23T04:37:11;101541.91;;;6.84;97.92
72061;BME280;59925;52.136;5.420;2023-02-23T04:39:38;101540.28;;;6.83;98.04
72061;BME280;59925;52.136;5.420;2023-02-23T04:42:04;101543.78;;;6.83;98.13
72061;BME280;59925;52.136;5.420;2023-02-23T04:44:30;101543.78;;;6.83;98.16
72061;BME280;59925;52.136;5.420;2023-02-23T04:46:57;101539.25;;;6.84;98.04
72061;BME280;59925;52.136;5.420;2023-02-23T04:49:23;101548.88;;;6.85;98.03
72061;BME280;59925;52.136;5.420;2023-02-23T04:51:50;101555.72;;;6.81;98.20
72061;BME280;59925;52.136;5.420;2023-02-23T04:54:16;101549.78;;;6.79;98.14
72061;BME280;59925;52.136;5.420;2023-02-23T04:56:43;101553.50;;;6.78;98.26
72061;BME280;59925;52.136;5.420;2023-02-23T04:59:09;101560.88;;;6.75;98.15
72061;BME280;59925;52.136;5.420;2023-02-23T05:01:36;101561.13;;;6.74;98.25
72061;BME280;59925;52.136;5.420;2023-02-23T05:04:02;101567.50;;;6.73;98.17
72061;BME280;59925;52.136;5.420;2023-02-23T05:06:29;101559.50;;;6.73;98.45
72061;BME280;59925;52.136;5.420;2023-02-23T05:08:56;101569.13;;;6.74;98.52
72061;BME280;59925;52.136;5.420;2023-02-23T05:11:22;101569.13;;;6.74;98.75
72061;BME280;59925;52.136;5.420;2023-02-23T05:13:50;101558.91;;;6.71;98.74
72061;BME280;59925;52.136;5.420;2023-02-23T05:16:17;101562.38;;;6.71;98.91
72061;BME280;59925;52.136;5.420;2023-02-23T05:18:43;101572.00;;;6.72;98.86
72061;BME280;59925;52.136;5.420;2023-02-23T05:21:10;101569.13;;;6.74;99.20
72061;BME280;59925;52.136;5.420;2023-02-23T05:23:37;101571.78;;;6.74;99.28
72061;BME280;59925;52.136;5.420;2023-02-23T05:26:10;101575.69;;;6.71;99.41
72061;BME280;59925;52.136;5.420;2023-02-23T05:28:39;101566.31;;;6.69;99.41
72061;BME280;59925;52.136;5.420;2023-02-23T05:31:06;101578.34;;;6.71;99.61
72061;BME280;59925;52.136;5.420;2023-02-23T05:33:34;101583.47;;;6.73;99.77
72061;BME280;59925;52.136;5.420;2023-02-23T05:36:04;101581.03;;;6.71;99.92
72061;BME280;59925;52.136;5.420;2023-02-23T05:38:30;101586.16;;;6.73;99.90
72061;BME280;59925;52.136;5.420;2023-02-23T05:40:57;101587.19;;;6.72;99.96
72061;BME280;59925;52.136;5.420;2023-02-23T05:43:23;101580.22;;;6.71;99.93
72061;BME280;59925;52.136;5.420;2023-02-23T05:45:49;101579.41;;;6.70;100.00
72061;BME280;59925;52.136;5.420;2023-02-23T05:48:16;101581.03;;;6.71;100.00
72061;BME280;59925;52.136;5.420;2023-02-23T05:50:42;101579.19;;;6.72;100.00
72061;BME280;59925;52.136;5.420;2023-02-23T05:53:08;101578.34;;;6.71;100.00
72061;BME280;59925;52.136;5.420;2023-02-23T05:55:35;101584.53;;;6.72;100.00
72061;BME280;59925;52.136;5.420;2023-02-23T05:58:02;101580.22;;;6.71;100.00
72061;BME280;59925;52.136;5.420;2023-02-23T06:00:29;101585.56;;;6.71;100.00
72061;BME280;59925;52.136;5.420;2023-02-23T06:02:55;101585.31;;;6.72;100.00
72061;BME280;59925;52.136;5.420;2023-02-23T06:05:22;101577.31;;;6.72;100.00
72061;BME280;59925;52.136;5.420;2023-02-23T06:07:48;101584.53;;;6.72;100.00
72061;BME280;59925;52.136;5.420;2023-02-23T06:10:15;101589.84;;;6.72;100.00
72061;BME280;59925;52.136;5.420;2023-02-23T06:12:41;101601.09;;;6.74;100.00
72061;BME280;59925;52.136;5.420;2023-02-23T06:15:08;101593.09;;;6.74;100.00
72061;BME280;59925;52.136;5.420;2023-02-23T06:17:35;101596.81;;;6.73;100.00
72061;BME280;59925;52.136;5.420;2023-02-23T06:20:02;101592.50;;;6.72;100.00
72061;BME280;59925;52.136;5.420;2023-02-23T06:22:30;101598.63;;;6.72;100.00
72061;BME280;59925;52.136;5.420;2023-02-23T06:24:56;101590.44;;;6.74;100.00
72061;BME280;59925;52.136;5.420;2023-02-23T06:27:22;101599.00;;;6.76;100.00
72061;BME280;59925;52.136;5.420;2023-02-23T06:29:49;101600.28;;;6.73;100.00
72061;BME280;59925;52.136;5.420;2023-02-23T06:32:15;101606.44;;;6.74;100.00
72061;BME280;59925;52.136;5.420;2023-02-23T06:34:42;101610.69;;;6.75;100.00
72061;BME280;59925;52.136;5.420;2023-02-23T06:37:10;101616.84;;;6.75;100.00
72061;BME280;59925;52.136;5.420;2023-02-23T06:39:37;101610.94;;;6.73;100.00
72061;BME280;59925;52.136;5.420;2023-02-23T06:42:03;101624.03;;;6.75;100.00
72061;BME280;59925;52.136;5.420;2023-02-23T06:44:30;101622.97;;;6.76;100.00
72061;BME280;59925;52.136;5.420;2023-02-23T06:46:56;101621.16;;;6.77;99.90
72061;BME280;59925;52.136;5.420;2023-02-23T06:49:23;101623.81;;;6.77;100.00
72061;BME280;59925;52.136;5.420;2023-02-23T06:51:49;101623.81;;;6.77;99.88
72061;BME280;59925;52.136;5.420;2023-02-23T06:54:15;101627.28;;;6.77;99.99
72061;BME280;59925;52.136;5.420;2023-02-23T06:56:42;101628.69;;;6.80;100.00
72061;BME280;59925;52.136;5.420;2023-02-23T06:59:09;101624.75;;;6.82;99.82
72061;BME280;59925;52.136;5.420;2023-02-23T07:01:35;101632.16;;;6.80;99.54
72061;BME280;59925;52.136;5.420;2023-02-23T07:04:02;101633.19;;;6.79;99.76
72061;BME280;59925;52.136;5.420;2023-02-23T07:06:28;101631.13;;;6.81;99.76
72061;BME280;59925;52.136;5.420;2023-02-23T07:08:56;101634.84;;;6.80;100.00
72061;BME280;59925;52.136;5.420;2023-02-23T07:11:23;101638.88;;;6.83;99.62
72061;BME280;59925;52.136;5.420;2023-02-23T07:13:49;101641.34;;;6.84;99.69
72061;BME280;59925;52.136;5.420;2023-02-23T07:16:16;101650.16;;;6.85;99.75
72061;BME280;59925;52.136;5.420;2023-02-23T07:18:42;101663.47;;;6.85;99.62
72061;BME280;59925;52.136;5.420;2023-02-23T07:21:08;101666.38;;;6.83;99.56
72061;BME280;59925;52.136;5.420;2023-02-23T07:23:35;101664.75;;;6.82;99.34
72061;BME280;59925;52.136;5.420;2023-02-23T07:26:01;101670.06;;;6.82;99.66
72061;BME280;59925;52.136;5.420;2023-02-23T07:28:28;101664.75;;;6.82;99.58
72061;BME280;59925;52.136;5.420;2023-02-23T07:30:55;101669.25;;;6.82;99.73
72061;BME280;59925;52.136;5.420;2023-02-23T07:33:23;101679.91;;;6.82;99.64
72061;BME280;59925;52.136;5.420;2023-02-23T07:35:50;101682.56;;;6.82;99.73
72061;BME280;59925;52.136;5.420;2023-02-23T07:38:17;101680.75;;;6.82;99.77
72061;BME280;59925;52.136;5.420;2023-02-23T07:40:44;101683.16;;;6.84;99.71
72061;BME280;59925;52.136;5.420;2023-02-23T07:43:10;101688.28;;;6.85;100.00
72061;BME280;59925;52.136;5.420;2023-02-23T07:45:36;101684.34;;;6.88;99.93
72061;BME280;59925;52.136;5.420;2023-02-23T07:48:03;101687.03;;;6.88;100.00
72061;BME280;59925;52.136;5.420;2023-02-23T07:50:30;101684.97;;;6.90;100.00
72061;BME280;59925;52.136;5.420;2023-02-23T07:52:57;101687.38;;;6.92;100.00
72061;BME280;59925;52.136;5.420;2023-02-23T07:55:23;101688.81;;;6.94;100.00
72061;BME280;59925;52.136;5.420;2023-02-23T07:57:50;101694.94;;;6.95;100.00
72061;BME280;59925;52.136;5.420;2023-02-23T08:00:16;101705.16;;;6.98;100.00
72061;BME280;59925;52.136;5.420;2023-02-23T08:02:43;101703.66;;;7.02;100.00
72061;BME280;59925;52.136;5.420;2023-02-23T08:05:10;101707.75;;;7.04;100.00
72061;BME280;59925;52.136;5.420;2023-02-23T08:07:36;101698.72;;;7.05;100.00
72061;BME280;59925;52.136;5.420;2023-02-23T08:10:03;101706.25;;;7.09;100.00
72061;BME280;59925;52.136;5.420;2023-02-23T08:12:31;101711.97;;;7.12;100.00
72061;BME280;59925;52.136;5.420;2023-02-23T08:14:59;101701.66;;;7.16;100.00
72061;BME280;59925;52.136;5.420;2023-02-23T08:17:25;101711.88;;;7.19;100.00
72061;BME280;59925;52.136;5.420;2023-02-23T08:19:52;101710.00;;;7.19;100.00
72061;BME280;59925;52.136;5.420;2023-02-23T08:22:19;101712.00;;;7.24;100.00
72061;BME280;59925;52.136;5.420;2023-02-23T08:24:46;101715.06;;;7.28;100.00
72061;BME280;59925;52.136;5.420;2023-02-23T08:27:12;101715.41;;;7.31;99.93
72061;BME280;59925;52.136;5.420;2023-02-23T08:29:39;101728.28;;;7.34;100.00
72061;BME280;59925;52.136;5.420;2023-02-23T08:32:05;101726.00;;;7.38;100.00
72061;BME280;59925;52.136;5.420;2023-02-23T08:34:37;101728.78;;;7.43;100.00
72061;BME280;59925;52.136;5.420;2023-02-23T08:37:03;101728.56;;;7.45;99.90
72061;BME280;59925;52.136;5.420;2023-02-23T08:39:30;101727.88;;;7.49;99.90
72061;BME280;59925;52.136;5.420;2023-02-23T08:41:56;101739.16;;;7.51;99.83
72061;BME280;59925;52.136;5.420;2023-02-23T08:44:22;101739.97;;;7.52;99.58
72061;BME280;59925;52.136;5.420;2023-02-23T08:46:49;101746.13;;;7.53;99.61
72061;BME280;59925;52.136;5.420;2023-02-23T08:49:15;101742.63;;;7.52;99.36
72061;BME280;59925;52.136;5.420;2023-02-23T08:51:42;101745.28;;;7.52;99.29
72061;BME280;59925;52.136;5.420;2023-02-23T08:54:08;101745.97;;;7.47;99.09
72061;BME280;59925;52.136;5.420;2023-02-23T08:56:40;101748.88;;;7.46;99.26
72061;BME280;59925;52.136;5.420;2023-02-23T08:59:07;101745.38;;;7.45;99.08
72061;BME280;59925;52.136;5.420;2023-02-23T09:01:34;101751.91;;;7.49;99.19
72061;BME280;59925;52.136;5.420;2023-02-23T09:04:03;101750.41;;;7.54;99.46
72061;BME280;59925;52.136;5.420;2023-02-23T09:06:30;101756.13;;;7.57;99.31
72061;BME280;59925;52.136;5.420;2023-02-23T09:08:57;101756.03;;;7.64;99.46
72061;BME280;59925;52.136;5.420;2023-02-23T09:11:24;101751.84;;;7.68;99.60
72061;BME280;59925;52.136;5.420;2023-02-23T09:13:50;101765.31;;;7.73;99.08
72061;BME280;59925;52.136;5.420;2023-02-23T09:16:17;101765.91;;;7.75;99.14
72061;BME280;59925;52.136;5.420;2023-02-23T09:18:44;101754.19;;;7.76;99.00
72061;BME280;59925;52.136;5.420;2023-02-23T09:21:19;101772.28;;;7.74;98.35
72061;BME280;59925;52.136;5.420;2023-02-23T09:23:51;101767.75;;;7.75;98.72
72061;BME280;59925;52.136;5.420;2023-02-23T09:26:19;101767.09;;;7.79;98.88
72061;BME280;59925;52.136;5.420;2023-02-23T09:28:47;101774.63;;;7.82;98.79
72061;BME280;59925;52.136;5.420;2023-02-23T09:31:17;101775.22;;;7.85;98.65
72061;BME280;59925;52.136;5.420;2023-02-23T09:33:45;101778.94;;;7.83;98.40
72061;BME280;59925;52.136;5.420;2023-02-23T09:36:17;101777.31;;;7.82;98.53
72061;BME280;59925;52.136;5.420;2023-02-23T09:38:47;101784.59;;;7.75;98.22
72061;BME280;59925;52.136;5.420;2023-02-23T09:41:45;101784.25;;;7.72;97.95
72061;BME280;59925;52.136;5.420;2023-02-23T09:46:59;101786.81;;;7.78;97.25
72061;BME280;59925;52.136;5.420;2023-02-23T09:49:33;101790.88;;;7.81;97.60
72061;BME280;59925;52.136;5.420;2023-02-23T09:52:02;101790.66;;;7.82;97.42
72061;BME280;59925;52.136;5.420;2023-02-23T09:54:32;101786.50;;;7.87;97.31
72061;BME280;59925;52.136;5.420;2023-02-23T09:57:02;101787.69;;;7.91;97.16
72061;BME280;59925;52.136;5.420;2023-02-23T09:59:30;101793.13;;;7.96;97.20
72061;BME280;59925;52.136;5.420;2023-02-23T10:02:05;101781.31;;;8.04;96.81
72061;BME280;59925;52.136;5.420;2023-02-23T10:04:48;101782.25;;;8.09;96.98
72061;BME280;59925;52.136;5.420;2023-02-23T10:07:21;101783.06;;;8.10;96.97
72061;BME280;59925;52.136;5.420;2023-02-23T10:15:49;101793.31;;;8.13;96.17
72061;BME280;59925;52.136;5.420;2023-02-23T10:18:39;101798.88;;;8.11;95.76
72061;BME280;59925;52.136;5.420;2023-02-23T10:24:05;101785.97;;;8.08;95.38
72061;BME280;59925;52.136;5.420;2023-02-23T10:26:46;101789.47;;;8.09;95.56
72061;BME280;59925;52.136;5.420;2023-02-23T10:29:30;101792.72;;;8.11;95.30
72061;BME280;59925;52.136;5.420;2023-02-23T10:35:17;101808.06;;;8.16;95.23
72061;BME280;59925;52.136;5.420;2023-02-23T10:37:46;101802.47;;;8.17;95.15
72061;BME280;59925;52.136;5.420;2023-02-23T10:40:15;101811.75;;;8.15;95.08
72061;BME280;59925;52.136;5.420;2023-02-23T10:42:42;101814.69;;;8.13;94.75
72061;BME280;59925;52.136;5.420;2023-02-23T10:45:13;101821.84;;;8.12;94.66
72061;BME280;59925;52.136;5.420;2023-02-23T10:47:59;101819.63;;;8.09;94.42
72061;BME280;59925;52.136;5.420;2023-02-23T10:50:27;101823.94;;;8.10;94.50
72061;BME280;59925;52.136;5.420;2023-02-23T10:53:08;101823.72;;;8.12;94.29
72061;BME280;59925;52.136;5.420;2023-02-23T10:55:37;101824.19;;;8.09;94.05
72061;BME280;59925;52.136;5.420;2023-02-23T10:58:12;101822.91;;;8.11;94.06
72061;BME280;59925;52.136;5.420;2023-02-23T11:00:51;101821.50;;;8.09;93.53
72061;BME280;59925;52.136;5.420;2023-02-23T11:03:25;101824.66;;;8.18;93.72
72061;BME280;59925;52.136;5.420;2023-02-23T11:05:54;101830.13;;;8.23;93.61
72061;BME280;59925;52.136;5.420;2023-02-23T11:13:39;101801.69;;;8.40;93.45
72061;BME280;59925;52.136;5.420;2023-02-23T11:16:07;101812.28;;;8.47;93.67
72061;BME280;59925;52.136;5.420;2023-02-23T11:18:36;101802.31;;;8.54;92.98
72061;BME280;59925;52.136;5.420;2023-02-23T11:21:11;101802.09;;;8.56;93.23
72061;BME280;59925;52.136;5.420;2023-02-23T11:23:39;101813.13;;;8.59;93.05
72061;BME280;59925;52.136;5.420;2023-02-23T11:26:39;101818.81;;;8.63;92.67
72061;BME280;59925;52.136;5.420;2023-02-23T11:29:34;101815.91;;;8.53;92.33
72061;BME280;59925;52.136;5.420;2023-02-23T11:32:06;101817.03;;;8.45;91.91
72061;BME280;59925;52.136;5.420;2023-02-23T11:34:36;101822.28;;;8.40;91.54
72061;BME280;59925;52.136;5.420;2023-02-23T11:39:54;101828.06;;;8.37;91.68
72061;BME280;59925;52.136;5.420;2023-02-23T11:42:26;101835.16;;;8.31;92.23
72061;BME280;59925;52.136;5.420;2023-02-23T11:45:16;101833.84;;;8.22;92.28
72061;BME280;59925;52.136;5.420;2023-02-23T11:47:47;101820.38;;;8.17;92.22
72061;BME280;59925;52.136;5.420;2023-02-23T11:50:25;101819.78;;;8.15;92.46
72061;BME280;59925;52.136;5.420;2023-02-23T11:53:05;101818.50;;;8.17;92.48
72061;BME280;59925;52.136;5.420;2023-02-23T11:55:37;101824.78;;;8.11;92.61
72061;BME280;59925;52.136;5.420;2023-02-23T11:58:28;101820.69;;;8.08;92.80
72061;BME280;59925;52.136;5.420;2023-02-23T12:01:02;101831.84;;;8.05;92.52
72061;BME280;59925;52.136;5.420;2023-02-23T12:03:37;101824.88;;;8.04;92.69
72061;BME280;59925;52.136;5.420;2023-02-23T12:06:09;101818.69;;;8.04;92.39
72061;BME280;59925;52.136;5.420;2023-02-23T12:08:46;101826.13;;;8.02;92.53
72061;BME280;59925;52.136;5.420;2023-02-23T12:11:18;101827.16;;;8.01;92.19
72061;BME280;59925;52.136;5.420;2023-02-23T12:13:57;101829.13;;;7.93;92.56
72061;BME280;59925;52.136;5.420;2023-02-23T12:16:30;101832.03;;;7.92;92.20
72061;BME280;59925;52.136;5.420;2023-02-23T12:19:04;101827.28;;;7.94;92.52
72061;BME280;59925;52.136;5.420;2023-02-23T12:21:38;101830.41;;;8.03;92.60
72061;BME280;59925;52.136;5.420;2023-02-23T12:26:47;101828.38;;;8.17;92.78
72061;BME280;59925;52.136;5.420;2023-02-23T12:29:20;101831.84;;;8.17;92.12
72061;BME280;59925;52.136;5.420;2023-02-23T12:31:53;101826.50;;;8.17;92.40
72061;BME280;59925;52.136;5.420;2023-02-23T12:34:33;101818.84;;;8.21;92.38
72061;BME280;59925;52.136;5.420;2023-02-23T12:37:13;101826.56;;;8.29;92.14
72061;BME280;59925;52.136;5.420;2023-02-23T12:39:47;101817.16;;;8.38;91.87
72061;BME280;59925;52.136;5.420;2023-02-23T12:44:52;101814.75;;;8.49;91.80
72061;BME280;59925;52.136;5.420;2023-02-23T12:47:32;101818.84;;;8.51;91.49
72061;BME280;59925;52.136;5.420;2023-02-23T12:50:08;101820.66;;;8.51;91.13
72061;BME280;59925;52.136;5.420;2023-02-23T12:52:49;101820.53;;;8.46;90.46
72061;BME280;59925;52.136;5.420;2023-02-23T12:55:34;101823.06;;;8.40;90.67
72061;BME280;59925;52.136;5.420;2023-02-23T12:58:23;101817.16;;;8.38;90.66
72061;BME280;59925;52.136;5.420;2023-02-23T13:03:32;101823.34;;;8.51;90.04
72061;BME280;59925;52.136;5.420;2023-02-23T13:14:50;101811.16;;;8.55;90.01
72061;BME280;59925;52.136;5.420;2023-02-23T13:20:27;101802.78;;;8.51;89.33
72061;BME280;59925;52.136;5.420;2023-02-23T13:23:08;101805.81;;;8.55;89.13
72061;BME280;59925;52.136;5.420;2023-02-23T13:26:13;101808.34;;;8.73;88.91
72061;BME280;59925;52.136;5.420;2023-02-23T13:31:40;101809.41;;;8.84;88.31
72061;BME280;59925;52.136;5.420;2023-02-23T13:34:15;101797.41;;;8.87;88.12
72061;BME280;59925;52.136;5.420;2023-02-23T13:36:46;101798.72;;;8.96;88.31
72061;BME280;59925;52.136;5.420;2023-02-23T13:44:45;101813.59;;;9.04;87.70
72061;BME280;59925;52.136;5.420;2023-02-23T13:47:26;101804.84;;;8.97;87.58
72061;BME280;59925;52.136;5.420;2023-02-23T13:52:52;101806.72;;;8.96;87.62
72061;BME280;59925;52.136;5.420;2023-02-23T13:58:12;101818.13;;;8.92;88.09
72061;BME280;59925;52.136;5.420;2023-02-23T14:00:41;101813.97;;;8.84;87.87
72061;BME280;59925;52.136;5.420;2023-02-23T14:03:22;101820.34;;;8.83;88.40
72061;BME280;59925;52.136;5.420;2023-02-23T14:05:55;101817.66;;;8.83;88.85
72061;BME280;59925;52.136;5.420;2023-02-23T14:08:32;101821.59;;;8.80;88.65
72061;BME280;59925;52.136;5.420;2023-02-23T14:11:00;101820.22;;;8.78;89.03
72061;BME280;59925;52.136;5.420;2023-02-23T14:13:30;101821.72;;;8.73;89.14
72061;BME280;59925;52.136;5.420;2023-02-23T14:21:59;101827.19;;;8.79;88.74
72061;BME280;59925;52.136;5.420;2023-02-23T14:24:25;101835.34;;;8.84;88.82
72061;BME280;59925;52.136;5.420;2023-02-23T14:29:43;101825.44;;;8.84;88.56
72061;BME280;59925;52.136;5.420;2023-02-23T14:39:59;101827.91;;;8.74;87.91
72061;BME280;59925;52.136;5.420;2023-02-23T14:42:27;101826.50;;;8.71;87.67
72061;BME280;59925;52.136;5.420;2023-02-23T14:44:57;101830.44;;;8.69;87.72
72061;BME280;59925;52.136;5.420;2023-02-23T14:47:27;101822.91;;;8.66;87.87
72061;BME280;59925;52.136;5.420;2023-02-23T14:49:56;101826.50;;;8.59;87.61
72061;BME280;59925;52.136;5.420;2023-02-23T14:52:44;101822.78;;;8.61;87.57
72061;BME280;59925;52.136;5.420;2023-02-23T14:57:39;101830.69;;;8.67;88.10
72061;BME280;59925;52.136;5.420;2023-02-23T15:02:37;101825.59;;;8.66;88.28
72061;BME280;59925;52.136;5.420;2023-02-23T15:05:22;101825.44;;;8.61;88.11
72061;BME280;59925;52.136;5.420;2023-02-23T15:07:49;101832.28;;;8.56;88.01
72061;BME280;59925;52.136;5.420;2023-02-23T15:10:23;101834.63;;;8.53;88.23
72061;BME280;59925;52.136;5.420;2023-02-23T15:12:52;101833.91;;;8.46;88.17